sensor_id;sensor_type;location;lat;lon;timestamp;P1;durP1;ratioP1;P2;durP2;ratioP2
10880;SDS011;5493;48.884;8.338;2023-09-19T00:01:41;1.23;;;0.87;;
10880;SDS011;5493;48.884;8.338;2023-09-19T00:04:11;0.67;;;0.60;;
10880;SDS011;5493;48.884;8.338;2023-09-19T00:06:37;1.10;;;0.70;;
10880;SDS011;5493;48.884;8.338;2023-09-19T00:09:04;2.53;;;1.10;;
10880;SDS011;5493;48.884;8.338;2023-09-19T00:11:35;2.53;;;0.90;;
10880;SDS011;5493;48.884;8.338;2023-09-19T00:14:02;0.63;;;0.47;;
10880;SDS011;5493;48.884;8.338;2023-09-19T00:16:29;3.17;;;0.80;;
10880;SDS011;5493;48.884;8.338;2023-09-19T00:18:57;0.80;;;0.60;;
10880;SDS011;5493;48.884;8.338;2023-09-19T00:21:25;1.97;;;0.73;;
10880;SDS011;5493;48.884;8.338;2023-09-19T00:23:53;2.37;;;0.70;;
10880;SDS011;5493;48.884;8.338;2023-09-19T00:26:20;1.23;;;0.60;;
10880;SDS011;5493;48.884;8.338;2023-09-19T00:28:47;2.70;;;0.80;;
10880;SDS011;5493;48.884;8.338;2023-09-19T00:31:13;1.77;;;0.60;;
10880;SDS011;5493;48.884;8.338;2023-09-19T00:33:40;1.00;;;0.90;;
10880;SDS011;5493;48.884;8.338;2023-09-19T00:36:07;1.67;;;0.73;;
10880;SDS011;5493;48.884;8.338;2023-09-19T00:38:35;3.20;;;0.90;;
10880;SDS011;5493;48.884;8.338;2023-09-19T00:41:02;1.43;;;0.40;;
10880;SDS011;5493;48.884;8.338;2023-09-19T00:43:28;2.33;;;0.60;;
10880;SDS011;5493;48.884;8.338;2023-09-19T00:45:59;0.80;;;0.60;;
10880;SDS011;5493;48.884;8.338;2023-09-19T00:48:28;0.90;;;0.60;;
10880;SDS011;5493;48.884;8.338;2023-09-19T00:50:56;1.13;;;0.60;;
10880;SDS011;5493;48.884;8.338;2023-09-19T00:53:25;0.80;;;0.67;;
10880;SDS011;5493;48.884;8.338;2023-09-19T00:55:53;1.03;;;0.73;;
10880;SDS011;5493;48.884;8.338;2023-09-19T00:58:21;1.90;;;0.83;;
10880;SDS011;5493;48.884;8.338;2023-09-19T01:00:48;1.77;;;0.57;;
10880;SDS011;5493;48.884;8.338;2023-09-19T01:03:15;0.73;;;0.57;;
10880;SDS011;5493;48.884;8.338;2023-09-19T01:05:43;1.37;;;0.97;;
10880;SDS011;5493;48.884;8.338;2023-09-19T01:08:10;1.43;;;0.50;;
10880;SDS011;5493;48.884;8.338;2023-09-19T01:10:37;1.00;;;0.70;;
10880;SDS011;5493;48.884;8.338;2023-09-19T01:13:21;1.57;;;0.60;;
10880;SDS011;5493;48.884;8.338;2023-09-19T01:15:59;1.03;;;0.30;;
10880;SDS011;5493;48.884;8.338;2023-09-19T01:18:39;2.23;;;0.67;;
10880;SDS011;5493;48.884;8.338;2023-09-19T01:21:11;0.77;;;0.50;;
10880;SDS011;5493;48.884;8.338;2023-09-19T01:23:52;1.87;;;0.70;;
10880;SDS011;5493;48.884;8.338;2023-09-19T01:26:46;2.03;;;0.87;;
10880;SDS011;5493;48.884;8.338;2023-09-19T01:29:34;0.80;;;0.60;;
10880;SDS011;5493;48.884;8.338;2023-09-19T01:32:06;1.10;;;0.80;;
10880;SDS011;5493;48.884;8.338;2023-09-19T01:37:21;0.97;;;0.60;;
10880;SDS011;5493;48.884;8.338;2023-09-19T01:39:52;0.73;;;0.57;;
10880;SDS011;5493;48.884;8.338;2023-09-19T01:42:24;0.83;;;0.53;;
10880;SDS011;5493;48.884;8.338;2023-09-19T01:44:59;1.07;;;0.30;;
10880;SDS011;5493;48.884;8.338;2023-09-19T01:47:37;0.57;;;0.47;;
10880;SDS011;5493;48.884;8.338;2023-09-19T01:50:11;3.70;;;0.63;;
10880;SDS011;5493;48.884;8.338;2023-09-19T01:52:46;0.50;;;0.40;;
10880;SDS011;5493;48.884;8.338;2023-09-19T01:55:15;1.77;;;0.67;;
10880;SDS011;5493;48.884;8.338;2023-09-19T01:57:46;2.13;;;0.87;;
10880;SDS011;5493;48.884;8.338;2023-09-19T02:00:16;2.13;;;0.73;;
10880;SDS011;5493;48.884;8.338;2023-09-19T02:02:48;0.90;;;0.50;;
10880;SDS011;5493;48.884;8.338;2023-09-19T02:05:21;1.03;;;0.50;;
10880;SDS011;5493;48.884;8.338;2023-09-19T02:07:49;1.00;;;0.60;;
10880;SDS011;5493;48.884;8.338;2023-09-19T02:10:16;2.57;;;0.77;;
10880;SDS011;5493;48.884;8.338;2023-09-19T02:12:43;1.27;;;0.50;;
10880;SDS011;5493;48.884;8.338;2023-09-19T02:15:09;1.43;;;0.53;;
10880;SDS011;5493;48.884;8.338;2023-09-19T02:17:36;1.27;;;0.50;;
10880;SDS011;5493;48.884;8.338;2023-09-19T02:20:04;1.03;;;0.60;;
10880;SDS011;5493;48.884;8.338;2023-09-19T02:22:36;2.70;;;0.70;;
10880;SDS011;5493;48.884;8.338;2023-09-19T02:25:03;0.10;;;0.10;;
10880;SDS011;5493;48.884;8.338;2023-09-19T02:27:32;1.43;;;0.67;;
10880;SDS011;5493;48.884;8.338;2023-09-19T02:29:58;1.90;;;0.80;;
10880;SDS011;5493;48.884;8.338;2023-09-19T02:32:27;3.47;;;0.90;;
10880;SDS011;5493;48.884;8.338;2023-09-19T02:34:55;2.47;;;0.80;;
10880;SDS011;5493;48.884;8.338;2023-09-19T02:37:24;1.23;;;0.60;;
10880;SDS011;5493;48.884;8.338;2023-09-19T02:39:51;1.17;;;0.70;;
10880;SDS011;5493;48.884;8.338;2023-09-19T02:42:17;1.20;;;0.60;;
10880;SDS011;5493;48.884;8.338;2023-09-19T02:44:44;2.10;;;0.63;;
10880;SDS011;5493;48.884;8.338;2023-09-19T02:47:12;2.07;;;0.70;;
10880;SDS011;5493;48.884;8.338;2023-09-19T02:49:40;1.23;;;0.60;;
10880;SDS011;5493;48.884;8.338;2023-09-19T02:52:07;0.90;;;0.60;;
10880;SDS011;5493;48.884;8.338;2023-09-19T02:54:35;1.90;;;0.80;;
10880;SDS011;5493;48.884;8.338;2023-09-19T02:57:02;1.23;;;0.70;;
10880;SDS011;5493;48.884;8.338;2023-09-19T02:59:31;4.60;;;0.80;;
10880;SDS011;5493;48.884;8.338;2023-09-19T03:01:58;2.23;;;0.80;;
10880;SDS011;5493;48.884;8.338;2023-09-19T03:04:25;1.33;;;1.00;;
10880;SDS011;5493;48.884;8.338;2023-09-19T03:06:51;0.70;;;0.50;;
10880;SDS011;5493;48.884;8.338;2023-09-19T03:09:23;1.63;;;0.80;;
10880;SDS011;5493;48.884;8.338;2023-09-19T03:11:51;2.27;;;0.63;;
10880;SDS011;5493;48.884;8.338;2023-09-19T03:14:19;1.07;;;0.87;;
10880;SDS011;5493;48.884;8.338;2023-09-19T03:16:46;2.97;;;0.80;;
10880;SDS011;5493;48.884;8.338;2023-09-19T03:19:12;2.37;;;0.90;;
10880;SDS011;5493;48.884;8.338;2023-09-19T03:21:40;0.83;;;0.63;;
10880;SDS011;5493;48.884;8.338;2023-09-19T03:24:06;3.53;;;0.90;;
10880;SDS011;5493;48.884;8.338;2023-09-19T03:26:33;2.97;;;0.90;;
10880;SDS011;5493;48.884;8.338;2023-09-19T03:29:02;1.20;;;0.83;;
10880;SDS011;5493;48.884;8.338;2023-09-19T03:31:31;1.07;;;0.97;;
10880;SDS011;5493;48.884;8.338;2023-09-19T03:33:58;1.13;;;0.60;;
10880;SDS011;5493;48.884;8.338;2023-09-19T03:36:24;1.10;;;0.87;;
10880;SDS011;5493;48.884;8.338;2023-09-19T03:38:53;1.90;;;0.87;;
10880;SDS011;5493;48.884;8.338;2023-09-19T03:41:19;2.30;;;0.70;;
10880;SDS011;5493;48.884;8.338;2023-09-19T03:43:46;3.70;;;1.10;;
10880;SDS011;5493;48.884;8.338;2023-09-19T03:46:13;1.70;;;0.87;;
10880;SDS011;5493;48.884;8.338;2023-09-19T03:48:40;4.07;;;0.93;;
10880;SDS011;5493;48.884;8.338;2023-09-19T03:51:07;4.40;;;0.90;;
10880;SDS011;5493;48.884;8.338;2023-09-19T03:53:34;1.90;;;0.80;;
10880;SDS011;5493;48.884;8.338;2023-09-19T03:56:00;1.80;;;1.03;;
10880;SDS011;5493;48.884;8.338;2023-09-19T03:58:27;1.33;;;0.90;;
10880;SDS011;5493;48.884;8.338;2023-09-19T04:00:54;1.50;;;1.10;;
10880;SDS011;5493;48.884;8.338;2023-09-19T04:03:22;1.53;;;0.83;;
10880;SDS011;5493;48.884;8.338;2023-09-19T04:05:59;1.23;;;0.80;;
10880;SDS011;5493;48.884;8.338;2023-09-19T04:08:26;1.60;;;0.87;;
10880;SDS011;5493;48.884;8.338;2023-09-19T04:10:52;2.40;;;1.23;;
10880;SDS011;5493;48.884;8.338;2023-09-19T04:13:19;1.67;;;0.80;;
10880;SDS011;5493;48.884;8.338;2023-09-19T04:15:45;3.97;;;1.10;;
10880;SDS011;5493;48.884;8.338;2023-09-19T04:18:12;4.23;;;1.03;;
10880;SDS011;5493;48.884;8.338;2023-09-19T04:20:39;1.50;;;0.70;;
10880;SDS011;5493;48.884;8.338;2023-09-19T04:23:06;1.77;;;0.80;;
10880;SDS011;5493;48.884;8.338;2023-09-19T04:25:33;3.70;;;0.80;;
10880;SDS011;5493;48.884;8.338;2023-09-19T04:27:59;1.73;;;0.93;;
10880;SDS011;5493;48.884;8.338;2023-09-19T04:30:26;3.10;;;1.00;;
10880;SDS011;5493;48.884;8.338;2023-09-19T04:32:52;3.60;;;1.43;;
10880;SDS011;5493;48.884;8.338;2023-09-19T04:35:19;3.10;;;1.00;;
10880;SDS011;5493;48.884;8.338;2023-09-19T04:37:47;3.63;;;0.90;;
10880;SDS011;5493;48.884;8.338;2023-09-19T04:40:14;1.00;;;0.73;;
10880;SDS011;5493;48.884;8.338;2023-09-19T04:42:42;3.20;;;1.10;;
10880;SDS011;5493;48.884;8.338;2023-09-19T04:45:09;3.00;;;1.17;;
10880;SDS011;5493;48.884;8.338;2023-09-19T04:47:36;1.50;;;1.03;;
10880;SDS011;5493;48.884;8.338;2023-09-19T04:50:04;2.13;;;1.10;;
10880;SDS011;5493;48.884;8.338;2023-09-19T04:52:32;1.90;;;1.27;;
10880;SDS011;5493;48.884;8.338;2023-09-19T04:55:01;3.70;;;1.10;;
10880;SDS011;5493;48.884;8.338;2023-09-19T04:57:27;2.13;;;1.03;;
10880;SDS011;5493;48.884;8.338;2023-09-19T04:59:54;2.57;;;1.30;;
10880;SDS011;5493;48.884;8.338;2023-09-19T05:02:20;2.40;;;1.23;;
10880;SDS011;5493;48.884;8.338;2023-09-19T05:04:47;2.70;;;1.10;;
10880;SDS011;5493;48.884;8.338;2023-09-19T05:07:13;1.50;;;1.03;;
10880;SDS011;5493;48.884;8.338;2023-09-19T05:09:40;1.93;;;1.27;;
10880;SDS011;5493;48.884;8.338;2023-09-19T05:12:08;1.40;;;1.17;;
10880;SDS011;5493;48.884;8.338;2023-09-19T05:14:35;2.77;;;0.90;;
10880;SDS011;5493;48.884;8.338;2023-09-19T05:17:02;1.43;;;0.97;;
10880;SDS011;5493;48.884;8.338;2023-09-19T05:19:29;2.53;;;1.40;;
10880;SDS011;5493;48.884;8.338;2023-09-19T05:21:55;2.93;;;1.30;;
10880;SDS011;5493;48.884;8.338;2023-09-19T05:24:22;3.23;;;1.17;;
10880;SDS011;5493;48.884;8.338;2023-09-19T05:26:51;1.50;;;1.27;;
10880;SDS011;5493;48.884;8.338;2023-09-19T05:29:19;2.10;;;1.53;;
10880;SDS011;5493;48.884;8.338;2023-09-19T05:31:45;2.10;;;1.17;;
10880;SDS011;5493;48.884;8.338;2023-09-19T05:34:12;1.60;;;1.20;;
10880;SDS011;5493;48.884;8.338;2023-09-19T05:36:38;1.63;;;1.33;;
10880;SDS011;5493;48.884;8.338;2023-09-19T05:39:05;4.07;;;1.23;;
10880;SDS011;5493;48.884;8.338;2023-09-19T05:41:34;1.50;;;1.20;;
10880;SDS011;5493;48.884;8.338;2023-09-19T05:44:01;3.03;;;1.23;;
10880;SDS011;5493;48.884;8.338;2023-09-19T05:46:29;4.33;;;1.03;;
10880;SDS011;5493;48.884;8.338;2023-09-19T05:48:56;1.60;;;1.23;;
10880;SDS011;5493;48.884;8.338;2023-09-19T05:51:22;3.03;;;1.20;;
10880;SDS011;5493;48.884;8.338;2023-09-19T05:53:50;1.60;;;1.17;;
10880;SDS011;5493;48.884;8.338;2023-09-19T05:56:17;1.40;;;1.30;;
10880;SDS011;5493;48.884;8.338;2023-09-19T05:58:44;2.60;;;1.27;;
10880;SDS011;5493;48.884;8.338;2023-09-19T06:01:10;6.27;;;1.10;;
10880;SDS011;5493;48.884;8.338;2023-09-19T06:03:38;2.23;;;1.20;;
10880;SDS011;5493;48.884;8.338;2023-09-19T06:06:05;1.83;;;1.20;;
10880;SDS011;5493;48.884;8.338;2023-09-19T06:08:31;3.03;;;1.30;;
10880;SDS011;5493;48.884;8.338;2023-09-19T06:10:58;2.57;;;1.20;;
10880;SDS011;5493;48.884;8.338;2023-09-19T06:13:27;1.87;;;1.13;;
10880;SDS011;5493;48.884;8.338;2023-09-19T06:15:54;4.30;;;1.80;;
10880;SDS011;5493;48.884;8.338;2023-09-19T06:18:21;1.90;;;1.10;;
10880;SDS011;5493;48.884;8.338;2023-09-19T06:20:52;2.83;;;0.90;;
10880;SDS011;5493;48.884;8.338;2023-09-19T06:23:19;1.67;;;1.30;;
10880;SDS011;5493;48.884;8.338;2023-09-19T06:25:47;6.77;;;1.43;;
10880;SDS011;5493;48.884;8.338;2023-09-19T06:28:14;2.80;;;1.33;;
10880;SDS011;5493;48.884;8.338;2023-09-19T06:30:43;3.43;;;1.50;;
10880;SDS011;5493;48.884;8.338;2023-09-19T06:33:10;3.00;;;1.37;;
10880;SDS011;5493;48.884;8.338;2023-09-19T06:35:37;2.27;;;1.00;;
10880;SDS011;5493;48.884;8.338;2023-09-19T06:38:05;2.20;;;1.23;;
10880;SDS011;5493;48.884;8.338;2023-09-19T06:40:33;3.37;;;1.40;;
10880;SDS011;5493;48.884;8.338;2023-09-19T06:43:00;5.13;;;1.30;;
10880;SDS011;5493;48.884;8.338;2023-09-19T06:45:28;2.10;;;1.13;;
10880;SDS011;5493;48.884;8.338;2023-09-19T06:47:56;3.67;;;1.40;;
10880;SDS011;5493;48.884;8.338;2023-09-19T06:50:25;6.00;;;1.60;;
10880;SDS011;5493;48.884;8.338;2023-09-19T06:52:53;4.03;;;1.40;;
10880;SDS011;5493;48.884;8.338;2023-09-19T06:55:23;2.73;;;1.07;;
10880;SDS011;5493;48.884;8.338;2023-09-19T06:57:52;3.00;;;1.47;;
10880;SDS011;5493;48.884;8.338;2023-09-19T07:00:20;3.13;;;1.40;;
10880;SDS011;5493;48.884;8.338;2023-09-19T07:02:54;2.07;;;1.50;;
10880;SDS011;5493;48.884;8.338;2023-09-19T07:05:21;3.00;;;1.40;;
10880;SDS011;5493;48.884;8.338;2023-09-19T07:07:48;3.73;;;1.53;;
10880;SDS011;5493;48.884;8.338;2023-09-19T07:10:14;8.27;;;1.40;;
10880;SDS011;5493;48.884;8.338;2023-09-19T07:12:42;2.57;;;1.37;;
10880;SDS011;5493;48.884;8.338;2023-09-19T07:15:09;4.53;;;1.50;;
10880;SDS011;5493;48.884;8.338;2023-09-19T07:17:36;2.47;;;1.57;;
10880;SDS011;5493;48.884;8.338;2023-09-19T07:20:03;2.40;;;1.30;;
10880;SDS011;5493;48.884;8.338;2023-09-19T07:22:32;1.93;;;1.17;;
10880;SDS011;5493;48.884;8.338;2023-09-19T07:24:59;3.13;;;1.57;;
10880;SDS011;5493;48.884;8.338;2023-09-19T07:27:25;4.97;;;1.67;;
10880;SDS011;5493;48.884;8.338;2023-09-19T07:29:53;2.63;;;1.43;;
10880;SDS011;5493;48.884;8.338;2023-09-19T07:32:20;4.03;;;1.33;;
10880;SDS011;5493;48.884;8.338;2023-09-19T07:34:46;3.10;;;1.53;;
10880;SDS011;5493;48.884;8.338;2023-09-19T07:37:13;2.20;;;1.50;;
10880;SDS011;5493;48.884;8.338;2023-09-19T07:39:40;3.10;;;1.47;;
10880;SDS011;5493;48.884;8.338;2023-09-19T07:42:08;2.23;;;1.23;;
10880;SDS011;5493;48.884;8.338;2023-09-19T07:44:36;4.30;;;1.03;;
10880;SDS011;5493;48.884;8.338;2023-09-19T07:47:04;1.93;;;1.10;;
10880;SDS011;5493;48.884;8.338;2023-09-19T07:49:31;4.90;;;1.27;;
10880;SDS011;5493;48.884;8.338;2023-09-19T07:51:57;1.48;;;0.70;;
10880;SDS011;5493;48.884;8.338;2023-09-19T07:54:24;2.03;;;0.90;;
10880;SDS011;5493;48.884;8.338;2023-09-19T07:56:50;0.55;;;0.55;;
10880;SDS011;5493;48.884;8.338;2023-09-19T07:59:17;1.50;;;1.15;;
10880;SDS011;5493;48.884;8.338;2023-09-19T08:01:43;3.53;;;0.63;;
10880;SDS011;5493;48.884;8.338;2023-09-19T08:04:11;1.98;;;0.70;;
10880;SDS011;5493;48.884;8.338;2023-09-19T08:06:38;3.53;;;0.90;;
10880;SDS011;5493;48.884;8.338;2023-09-19T08:09:04;1.98;;;0.77;;
10880;SDS011;5493;48.884;8.338;2023-09-19T08:11:32;3.57;;;1.17;;
10880;SDS011;5493;48.884;8.338;2023-09-19T08:13:59;2.92;;;0.75;;
10880;SDS011;5493;48.884;8.338;2023-09-19T08:16:26;1.98;;;0.75;;
10880;SDS011;5493;48.884;8.338;2023-09-19T08:18:52;3.17;;;0.95;;
10880;SDS011;5493;48.884;8.338;2023-09-19T08:21:21;4.65;;;0.95;;
10880;SDS011;5493;48.884;8.338;2023-09-19T08:23:49;3.95;;;1.02;;
10880;SDS011;5493;48.884;8.338;2023-09-19T08:26:15;3.92;;;1.17;;
10880;SDS011;5493;48.884;8.338;2023-09-19T08:28:42;1.48;;;0.98;;
10880;SDS011;5493;48.884;8.338;2023-09-19T08:31:09;1.52;;;0.98;;
10880;SDS011;5493;48.884;8.338;2023-09-19T08:33:36;1.50;;;0.70;;
10880;SDS011;5493;48.884;8.338;2023-09-19T08:36:03;1.45;;;0.90;;
10880;SDS011;5493;48.884;8.338;2023-09-19T08:38:33;1.80;;;1.15;;
10880;SDS011;5493;48.884;8.338;2023-09-19T08:41:01;2.13;;;1.00;;
10880;SDS011;5493;48.884;8.338;2023-09-19T08:43:32;5.43;;;1.02;;
10880;SDS011;5493;48.884;8.338;2023-09-19T08:46:03;1.75;;;0.90;;
10880;SDS011;5493;48.884;8.338;2023-09-19T08:48:36;2.15;;;0.90;;
10880;SDS011;5493;48.884;8.338;2023-09-19T08:51:06;1.60;;;0.90;;
10880;SDS011;5493;48.884;8.338;2023-09-19T08:53:41;1.60;;;0.90;;
10880;SDS011;5493;48.884;8.338;2023-09-19T08:56:11;1.00;;;0.80;;
10880;SDS011;5493;48.884;8.338;2023-09-19T08:58:40;1.90;;;0.82;;
10880;SDS011;5493;48.884;8.338;2023-09-19T09:01:12;1.65;;;0.98;;
10880;SDS011;5493;48.884;8.338;2023-09-19T09:03:41;1.50;;;1.10;;
10880;SDS011;5493;48.884;8.338;2023-09-19T09:06:11;1.35;;;0.85;;
10880;SDS011;5493;48.884;8.338;2023-09-19T09:08:42;1.60;;;1.00;;
10880;SDS011;5493;48.884;8.338;2023-09-19T09:11:09;1.45;;;0.90;;
10880;SDS011;5493;48.884;8.338;2023-09-19T09:13:37;2.80;;;1.08;;
10880;SDS011;5493;48.884;8.338;2023-09-19T09:16:04;2.38;;;0.90;;
10880;SDS011;5493;48.884;8.338;2023-09-19T09:18:30;3.80;;;1.35;;
10880;SDS011;5493;48.884;8.338;2023-09-19T09:20:57;3.58;;;1.33;;
10880;SDS011;5493;48.884;8.338;2023-09-19T09:23:23;1.13;;;0.47;;
10880;SDS011;5493;48.884;8.338;2023-09-19T09:25:52;2.45;;;0.90;;
10880;SDS011;5493;48.884;8.338;2023-09-19T09:28:24;1.60;;;0.93;;
10880;SDS011;5493;48.884;8.338;2023-09-19T09:30:53;2.25;;;1.05;;
10880;SDS011;5493;48.884;8.338;2023-09-19T09:33:20;3.03;;;0.95;;
10880;SDS011;5493;48.884;8.338;2023-09-19T09:35:48;2.10;;;0.90;;
10880;SDS011;5493;48.884;8.338;2023-09-19T09:38:17;1.45;;;0.85;;
10880;SDS011;5493;48.884;8.338;2023-09-19T09:40:48;1.25;;;1.00;;
10880;SDS011;5493;48.884;8.338;2023-09-19T09:43:30;2.00;;;1.23;;
10880;SDS011;5493;48.884;8.338;2023-09-19T09:46:11;1.73;;;0.73;;
10880;SDS011;5493;48.884;8.338;2023-09-19T09:48:56;3.10;;;0.93;;
10880;SDS011;5493;48.884;8.338;2023-09-19T09:51:37;2.05;;;0.70;;
10880;SDS011;5493;48.884;8.338;2023-09-19T09:54:11;2.22;;;0.70;;
10880;SDS011;5493;48.884;8.338;2023-09-19T09:56:51;2.85;;;0.90;;
10880;SDS011;5493;48.884;8.338;2023-09-19T09:59:20;1.30;;;0.65;;
10880;SDS011;5493;48.884;8.338;2023-09-19T10:01:49;2.45;;;0.77;;
10880;SDS011;5493;48.884;8.338;2023-09-19T10:04:26;2.90;;;1.13;;
10880;SDS011;5493;48.884;8.338;2023-09-19T10:06:55;3.83;;;1.00;;
10880;SDS011;5493;48.884;8.338;2023-09-19T10:09:22;2.92;;;1.00;;
10880;SDS011;5493;48.884;8.338;2023-09-19T10:12:02;1.33;;;0.77;;
10880;SDS011;5493;48.884;8.338;2023-09-19T10:14:35;1.30;;;0.80;;
10880;SDS011;5493;48.884;8.338;2023-09-19T10:17:05;2.15;;;0.90;;
10880;SDS011;5493;48.884;8.338;2023-09-19T10:19:42;2.83;;;1.05;;
10880;SDS011;5493;48.884;8.338;2023-09-19T10:22:13;3.42;;;1.00;;
10880;SDS011;5493;48.884;8.338;2023-09-19T10:24:42;2.65;;;1.00;;
10880;SDS011;5493;48.884;8.338;2023-09-19T10:27:11;4.30;;;0.98;;
10880;SDS011;5493;48.884;8.338;2023-09-19T10:29:40;3.00;;;1.20;;
10880;SDS011;5493;48.884;8.338;2023-09-19T10:32:12;0.93;;;0.63;;
10880;SDS011;5493;48.884;8.338;2023-09-19T10:34:44;1.48;;;1.00;;
10880;SDS011;5493;48.884;8.338;2023-09-19T10:37:13;1.88;;;0.70;;
10880;SDS011;5493;48.884;8.338;2023-09-19T10:39:41;1.65;;;0.90;;
10880;SDS011;5493;48.884;8.338;2023-09-19T10:42:13;1.60;;;0.80;;
10880;SDS011;5493;48.884;8.338;2023-09-19T10:44:43;1.17;;;0.90;;
10880;SDS011;5493;48.884;8.338;2023-09-19T10:47:12;3.83;;;0.85;;
10880;SDS011;5493;48.884;8.338;2023-09-19T10:49:42;2.50;;;1.00;;
10880;SDS011;5493;48.884;8.338;2023-09-19T10:52:11;2.15;;;0.90;;
10880;SDS011;5493;48.884;8.338;2023-09-19T10:54:45;2.08;;;0.93;;
10880;SDS011;5493;48.884;8.338;2023-09-19T10:57:18;1.30;;;0.80;;
10880;SDS011;5493;48.884;8.338;2023-09-19T11:00:01;1.55;;;0.80;;
10880;SDS011;5493;48.884;8.338;2023-09-19T11:05:59;1.02;;;0.65;;
10880;SDS011;5493;48.884;8.338;2023-09-19T11:09:00;1.52;;;0.85;;
10880;SDS011;5493;48.884;8.338;2023-09-19T11:11:47;2.10;;;0.95;;
10880;SDS011;5493;48.884;8.338;2023-09-19T11:14:28;1.38;;;0.80;;
10880;SDS011;5493;48.884;8.338;2023-09-19T11:20:20;2.33;;;1.00;;
10880;SDS011;5493;48.884;8.338;2023-09-19T11:23:23;3.13;;;0.88;;
10880;SDS011;5493;48.884;8.338;2023-09-19T11:25:53;2.00;;;0.95;;
10880;SDS011;5493;48.884;8.338;2023-09-19T11:28:32;1.63;;;0.85;;
10880;SDS011;5493;48.884;8.338;2023-09-19T11:40:11;1.63;;;1.00;;
10880;SDS011;5493;48.884;8.338;2023-09-19T11:42:42;1.48;;;0.73;;
10880;SDS011;5493;48.884;8.338;2023-09-19T11:48:11;2.78;;;0.90;;
10880;SDS011;5493;48.884;8.338;2023-09-19T11:50:40;3.17;;;1.00;;
10880;SDS011;5493;48.884;8.338;2023-09-19T11:53:09;1.23;;;0.70;;
10880;SDS011;5493;48.884;8.338;2023-09-19T11:55:37;2.13;;;1.10;;
10880;SDS011;5493;48.884;8.338;2023-09-19T11:58:05;1.48;;;0.80;;
10880;SDS011;5493;48.884;8.338;2023-09-19T12:00:34;1.27;;;0.75;;
10880;SDS011;5493;48.884;8.338;2023-09-19T12:03:03;1.55;;;0.90;;
10880;SDS011;5493;48.884;8.338;2023-09-19T12:05:35;2.15;;;1.00;;
10880;SDS011;5493;48.884;8.338;2023-09-19T12:08:02;1.65;;;1.10;;
10880;SDS011;5493;48.884;8.338;2023-09-19T12:10:32;1.42;;;0.85;;
10880;SDS011;5493;48.884;8.338;2023-09-19T12:13:00;3.38;;;0.85;;
10880;SDS011;5493;48.884;8.338;2023-09-19T12:15:27;1.20;;;0.88;;
10880;SDS011;5493;48.884;8.338;2023-09-19T12:17:59;2.95;;;1.02;;
10880;SDS011;5493;48.884;8.338;2023-09-19T12:20:39;4.75;;;0.70;;
10880;SDS011;5493;48.884;8.338;2023-09-19T12:23:12;2.63;;;0.88;;
10880;SDS011;5493;48.884;8.338;2023-09-19T12:25:41;1.80;;;0.80;;
10880;SDS011;5493;48.884;8.338;2023-09-19T12:28:10;2.80;;;0.95;;
10880;SDS011;5493;48.884;8.338;2023-09-19T12:30:38;1.00;;;0.77;;
10880;SDS011;5493;48.884;8.338;2023-09-19T12:33:13;1.50;;;0.80;;
10880;SDS011;5493;48.884;8.338;2023-09-19T12:35:44;1.42;;;0.98;;
10880;SDS011;5493;48.884;8.338;2023-09-19T12:38:10;4.00;;;1.20;;
10880;SDS011;5493;48.884;8.338;2023-09-19T12:40:37;2.90;;;1.00;;
10880;SDS011;5493;48.884;8.338;2023-09-19T12:43:07;2.55;;;0.90;;
10880;SDS011;5493;48.884;8.338;2023-09-19T12:45:40;1.27;;;0.90;;
10880;SDS011;5493;48.884;8.338;2023-09-19T12:48:19;3.78;;;1.10;;
10880;SDS011;5493;48.884;8.338;2023-09-19T12:51:01;1.15;;;0.82;;
10880;SDS011;5493;48.884;8.338;2023-09-19T12:53:32;1.50;;;0.90;;
10880;SDS011;5493;48.884;8.338;2023-09-19T12:56:01;1.27;;;0.80;;
10880;SDS011;5493;48.884;8.338;2023-09-19T12:58:32;1.50;;;0.90;;
10880;SDS011;5493;48.884;8.338;2023-09-19T13:00:59;1.05;;;0.90;;
10880;SDS011;5493;48.884;8.338;2023-09-19T13:03:28;1.27;;;1.10;;
10880;SDS011;5493;48.884;8.338;2023-09-19T13:05:57;2.53;;;0.90;;
10880;SDS011;5493;48.884;8.338;2023-09-19T13:08:26;4.78;;;1.00;;
10880;SDS011;5493;48.884;8.338;2023-09-19T13:10:59;1.90;;;0.70;;
10880;SDS011;5493;48.884;8.338;2023-09-19T13:13:36;1.58;;;0.95;;
10880;SDS011;5493;48.884;8.338;2023-09-19T13:16:03;2.38;;;0.60;;
10880;SDS011;5493;48.884;8.338;2023-09-19T13:18:41;1.17;;;1.05;;
10880;SDS011;5493;48.884;8.338;2023-09-19T13:21:10;1.45;;;0.85;;
10880;SDS011;5493;48.884;8.338;2023-09-19T13:23:40;1.20;;;0.77;;
10880;SDS011;5493;48.884;8.338;2023-09-19T13:26:08;1.30;;;0.85;;
10880;SDS011;5493;48.884;8.338;2023-09-19T13:28:37;1.95;;;1.10;;
10880;SDS011;5493;48.884;8.338;2023-09-19T13:31:03;1.20;;;0.90;;
10880;SDS011;5493;48.884;8.338;2023-09-19T13:33:30;2.38;;;0.93;;
10880;SDS011;5493;48.884;8.338;2023-09-19T13:35:57;0.95;;;0.77;;
10880;SDS011;5493;48.884;8.338;2023-09-19T13:38:24;0.98;;;0.70;;
10880;SDS011;5493;48.884;8.338;2023-09-19T13:40:51;3.03;;;0.95;;
10880;SDS011;5493;48.884;8.338;2023-09-19T13:43:18;0.80;;;0.80;;
10880;SDS011;5493;48.884;8.338;2023-09-19T13:45:48;1.17;;;0.88;;
10880;SDS011;5493;48.884;8.338;2023-09-19T13:48:15;1.25;;;0.50;;
10880;SDS011;5493;48.884;8.338;2023-09-19T13:50:47;0.60;;;0.43;;
10880;SDS011;5493;48.884;8.338;2023-09-19T13:53:14;0.93;;;0.70;;
10880;SDS011;5493;48.884;8.338;2023-09-19T13:55:41;1.77;;;0.57;;
10880;SDS011;5493;48.884;8.338;2023-09-19T13:58:08;1.10;;;0.70;;
10880;SDS011;5493;48.884;8.338;2023-09-19T14:00:36;1.23;;;0.65;;
10880;SDS011;5493;48.884;8.338;2023-09-19T14:03:05;1.10;;;0.68;;
10880;SDS011;5493;48.884;8.338;2023-09-19T14:05:31;0.43;;;0.43;;
10880;SDS011;5493;48.884;8.338;2023-09-19T14:07:58;2.92;;;0.75;;
10880;SDS011;5493;48.884;8.338;2023-09-19T14:10:25;1.70;;;0.45;;
10880;SDS011;5493;48.884;8.338;2023-09-19T14:12:52;1.13;;;0.65;;
10880;SDS011;5493;48.884;8.338;2023-09-19T14:15:19;1.63;;;0.90;;
10880;SDS011;5493;48.884;8.338;2023-09-19T14:17:54;0.65;;;0.50;;
10880;SDS011;5493;48.884;8.338;2023-09-19T14:20:22;1.60;;;0.60;;
10880;SDS011;5493;48.884;8.338;2023-09-19T14:22:49;1.05;;;0.70;;
10880;SDS011;5493;48.884;8.338;2023-09-19T14:25:15;0.50;;;0.50;;
10880;SDS011;5493;48.884;8.338;2023-09-19T14:27:42;2.67;;;0.70;;
10880;SDS011;5493;48.884;8.338;2023-09-19T14:30:09;2.00;;;0.68;;
10880;SDS011;5493;48.884;8.338;2023-09-19T14:32:36;1.75;;;0.50;;
10880;SDS011;5493;48.884;8.338;2023-09-19T14:35:03;2.88;;;1.00;;
10880;SDS011;5493;48.884;8.338;2023-09-19T14:37:31;1.92;;;0.70;;
10880;SDS011;5493;48.884;8.338;2023-09-19T14:39:58;1.08;;;0.75;;
10880;SDS011;5493;48.884;8.338;2023-09-19T14:42:25;1.92;;;0.93;;
10880;SDS011;5493;48.884;8.338;2023-09-19T14:44:53;1.13;;;0.75;;
10880;SDS011;5493;48.884;8.338;2023-09-19T14:47:19;1.65;;;0.70;;
10880;SDS011;5493;48.884;8.338;2023-09-19T14:49:46;0.98;;;0.75;;
10880;SDS011;5493;48.884;8.338;2023-09-19T14:52:12;0.75;;;0.65;;
10880;SDS011;5493;48.884;8.338;2023-09-19T14:54:42;1.77;;;0.70;;
10880;SDS011;5493;48.884;8.338;2023-09-19T14:57:08;1.88;;;1.00;;
10880;SDS011;5493;48.884;8.338;2023-09-19T14:59:35;0.98;;;0.73;;
10880;SDS011;5493;48.884;8.338;2023-09-19T15:02:03;1.92;;;0.68;;
10880;SDS011;5493;48.884;8.338;2023-09-19T15:04:30;2.10;;;0.75;;
10880;SDS011;5493;48.884;8.338;2023-09-19T15:06:56;1.95;;;0.90;;
10880;SDS011;5493;48.884;8.338;2023-09-19T15:09:23;2.33;;;0.85;;
10880;SDS011;5493;48.884;8.338;2023-09-19T15:11:52;1.50;;;0.80;;
10880;SDS011;5493;48.884;8.338;2023-09-19T15:14:19;0.80;;;0.70;;
10880;SDS011;5493;48.884;8.338;2023-09-19T15:16:45;1.45;;;0.90;;
10880;SDS011;5493;48.884;8.338;2023-09-19T15:19:13;1.02;;;0.77;;
10880;SDS011;5493;48.884;8.338;2023-09-19T15:21:40;0.90;;;0.60;;
10880;SDS011;5493;48.884;8.338;2023-09-19T15:24:06;2.47;;;1.00;;
10880;SDS011;5493;48.884;8.338;2023-09-19T15:26:34;1.73;;;0.68;;
10880;SDS011;5493;48.884;8.338;2023-09-19T15:29:05;1.08;;;0.77;;
10880;SDS011;5493;48.884;8.338;2023-09-19T15:31:32;2.00;;;0.68;;
10880;SDS011;5493;48.884;8.338;2023-09-19T15:33:59;0.98;;;0.60;;